sensor_id;sensor_type;location;lat;lon;timestamp;temperature;humidity
21518;DHT22;61765;45.794;24.150;2023-04-01T00:02:16;14.80;83.60
21518;DHT22;61765;45.794;24.150;2023-04-01T00:10:22;15.00;82.90
21518;DHT22;61765;45.794;24.150;2023-04-01T00:18:31;15.30;82.60
21518;DHT22;61765;45.794;24.150;2023-04-01T00:26:36;15.40;83.20
21518;DHT22;61765;45.794;24.150;2023-04-01T00:34:45;15.30;82.50
21518;DHT22;61765;45.794;24.150;2023-04-01T00:42:51;15.50;83.10
21518;DHT22;61765;45.794;24.150;2023-04-01T00:51:02;15.30;83.40
21518;DHT22;61765;45.794;24.150;2023-04-01T00:59:11;15.60;82.90
21518;DHT22;61765;45.794;24.150;2023-04-01T01:07:30;15.50;83.30
21518;DHT22;61765;45.794;24.150;2023-04-01T01:15:41;14.90;84.30
21518;DHT22;61765;45.794;24.150;2023-04-01T01:24:11;14.90;84.80
21518;DHT22;61765;45.794;24.150;2023-04-01T01:32:31;14.60;86.00
21518;DHT22;61765;45.794;24.150;2023-04-01T01:40:45;14.40;86.40
21518;DHT22;61765;45.794;24.150;2023-04-01T01:48:55;14.10;87.20
21518;DHT22;61765;45.794;24.150;2023-04-01T01:57:07;14.10;87.50
21518;DHT22;61765;45.794;24.150;2023-04-01T02:05:21;13.90;87.80
21518;DHT22;61765;45.794;24.150;2023-04-01T02:13:37;14.00;86.90
21518;DHT22;61765;45.794;24.150;2023-04-01T02:21:43;14.70;85.80
21518;DHT22;61765;45.794;24.150;2023-04-01T02:29:52;15.00;84.10
21518;DHT22;61765;45.794;24.150;2023-04-01T02:37:58;14.70;83.60
21518;DHT22;61765;45.794;24.150;2023-04-01T02:46:06;14.70;84.30
21518;DHT22;61765;45.794;24.150;2023-04-01T02:54:12;15.10;83.40
21518;DHT22;61765;45.794;24.150;2023-04-01T03:02:21;15.50;82.60
21518;DHT22;61765;45.794;24.150;2023-04-01T03:10:26;14.90;83.00
21518;DHT22;61765;45.794;24.150;2023-04-01T03:18:34;15.00;83.30
21518;DHT22;61765;45.794;24.150;2023-04-01T03:26:40;14.90;83.70
21518;DHT22;61765;45.794;24.150;2023-04-01T03:34:48;15.00;83.10
21518;DHT22;61765;45.794;24.150;2023-04-01T03:42:57;15.40;82.60
21518;DHT22;61765;45.794;24.150;2023-04-01T03:51:09;15.20;82.60
21518;DHT22;61765;45.794;24.150;2023-04-01T03:59:14;15.50;82.30
21518;DHT22;61765;45.794;24.150;2023-04-01T04:07:23;15.60;82.20
21518;DHT22;61765;45.794;24.150;2023-04-01T04:15:39;15.50;82.60
21518;DHT22;61765;45.794;24.150;2023-04-01T04:23:47;15.50;82.90
21518;DHT22;61765;45.794;24.150;2023-04-01T04:31:54;15.40;83.00
21518;DHT22;61765;45.794;24.150;2023-04-01T04:40:03;15.30;82.60
21518;DHT22;61765;45.794;24.150;2023-04-01T04:48:09;15.50;82.30
21518;DHT22;61765;45.794;24.150;2023-04-01T04:56:22;15.60;82.10
21518;DHT22;61765;45.794;24.150;2023-04-01T05:04:39;15.70;82.30
21518;DHT22;61765;45.794;24.150;2023-04-01T05:12:48;15.80;81.70
21518;DHT22;61765;45.794;24.150;2023-04-01T05:20:56;15.60;81.70
21518;DHT22;61765;45.794;24.150;2023-04-01T05:29:04;15.90;81.20
21518;DHT22;61765;45.794;24.150;2023-04-01T05:37:10;16.00;80.80
21518;DHT22;61765;45.794;24.150;2023-04-01T05:45:18;15.90;80.60
21518;DHT22;61765;45.794;24.150;2023-04-01T05:53:36;16.00;80.00
21518;DHT22;61765;45.794;24.150;2023-04-01T06:01:44;16.50;79.20
21518;DHT22;61765;45.794;24.150;2023-04-01T06:09:50;16.30;79.00
21518;DHT22;61765;45.794;24.150;2023-04-01T06:18:18;16.40;79.10
21518;DHT22;61765;45.794;24.150;2023-04-01T06:26:34;16.70;78.80
21518;DHT22;61765;45.794;24.150;2023-04-01T06:35:00;16.90;78.90
21518;DHT22;61765;45.794;24.150;2023-04-01T06:43:13;17.10;78.10
21518;DHT22;61765;45.794;24.150;2023-04-01T06:51:52;17.00;78.50
21518;DHT22;61765;45.794;24.150;2023-04-01T07:00:25;17.20;78.40
21518;DHT22;61765;45.794;24.150;2023-04-01T07:08:38;17.30;78.40
21518;DHT22;61765;45.794;24.150;2023-04-01T07:16:48;17.80;77.40
21518;DHT22;61765;45.794;24.150;2023-04-01T07:25:03;17.80;77.60
21518;DHT22;61765;45.794;24.150;2023-04-01T07:33:15;18.40;77.10
21518;DHT22;61765;45.794;24.150;2023-04-01T07:41:29;18.60;76.20
21518;DHT22;61765;45.794;24.150;2023-04-01T07:49:43;18.80;76.00
21518;DHT22;61765;45.794;24.150;2023-04-01T07:58:00;19.00;75.60
21518;DHT22;61765;45.794;24.150;2023-04-01T08:06:16;19.00;75.60
21518;DHT22;61765;45.794;24.150;2023-04-01T08:14:30;19.00;75.20
21518;DHT22;61765;45.794;24.150;2023-04-01T08:23:15;18.90;75.90
21518;DHT22;61765;45.794;24.150;2023-04-01T08:31:29;19.10;75.80
21518;DHT22;61765;45.794;24.150;2023-04-01T08:39:39;19.40;75.60
21518;DHT22;61765;45.794;24.150;2023-04-01T08:56:27;20.30;73.40
21518;DHT22;61765;45.794;24.150;2023-04-01T09:04:53;20.50;73.50
21518;DHT22;61765;45.794;24.150;2023-04-01T09:13:29;20.70;73.00
21518;DHT22;61765;45.794;24.150;2023-04-01T09:21:57;20.50;72.80
21518;DHT22;61765;45.794;24.150;2023-04-01T09:30:31;20.20;73.10
21518;DHT22;61765;45.794;24.150;2023-04-01T09:38:48;20.10;73.40
21518;DHT22;61765;45.794;24.150;2023-04-01T09:47:10;20.10;73.40
21518;DHT22;61765;45.794;24.150;2023-04-01T09:55:49;20.30;73.20
21518;DHT22;61765;45.794;24.150;2023-04-01T10:13:04;20.80;72.60
21518;DHT22;61765;45.794;24.150;2023-04-01T10:47:43;21.60;71.10
21518;DHT22;61765;45.794;24.150;2023-04-01T11:14:22;21.80;67.00
21518;DHT22;61765;45.794;24.150;2023-04-01T11:22:58;21.40;67.90
21518;DHT22;61765;45.794;24.150;2023-04-01T11:31:25;21.10;69.00
21518;DHT22;61765;45.794;24.150;2023-04-01T11:39:38;20.90;69.60
21518;DHT22;61765;45.794;24.150;2023-04-01T11:48:29;20.80;69.60
21518;DHT22;61765;45.794;24.150;2023-04-01T11:56:49;20.90;69.80
21518;DHT22;61765;45.794;24.150;2023-04-01T12:05:18;20.60;70.30
21518;DHT22;61765;45.794;24.150;2023-04-01T12:13:36;20.30;71.40
21518;DHT22;61765;45.794;24.150;2023-04-01T12:21:56;20.20;71.50
21518;DHT22;61765;45.794;24.150;2023-04-01T12:30:19;20.00;72.00
21518;DHT22;61765;45.794;24.150;2023-04-01T12:38:43;20.00;72.40
21518;DHT22;61765;45.794;24.150;2023-04-01T12:47:07;19.90;71.90
21518;DHT22;61765;45.794;24.150;2023-04-01T12:55:35;19.70;72.30
21518;DHT22;61765;45.794;24.150;2023-04-01T13:04:11;19.60;72.80
21518;DHT22;61765;45.794;24.150;2023-04-01T13:12:38;19.50;73.50
21518;DHT22;61765;45.794;24.150;2023-04-01T13:20:54;19.40;74.30
21518;DHT22;61765;45.794;24.150;2023-04-01T13:29:13;19.40;74.50
21518;DHT22;61765;45.794;24.150;2023-04-01T13:37:28;19.40;75.60
21518;DHT22;61765;45.794;24.150;2023-04-01T13:45:49;19.40;75.70
21518;DHT22;61765;45.794;24.150;2023-04-01T14:03:00;19.50;77.50
21518;DHT22;61765;45.794;24.150;2023-04-01T14:11:19;18.90;79.50
21518;DHT22;61765;45.794;24.150;2023-04-01T14:19:47;18.50;81.30
21518;DHT22;61765;45.794;24.150;2023-04-01T14:28:01;18.50;81.80
21518;DHT22;61765;45.794;24.150;2023-04-01T14:36:34;18.60;80.90
21518;DHT22;61765;45.794;24.150;2023-04-01T14:44:57;18.50;81.50
21518;DHT22;61765;45.794;24.150;2023-04-01T14:53:26;18.50;81.80
21518;DHT22;61765;45.794;24.150;2023-04-01T15:01:40;18.30;82.60
21518;DHT22;61765;45.794;24.150;2023-04-01T15:09:59;18.30;82.80
21518;DHT22;61765;45.794;24.150;2023-04-01T15:18:15;18.40;83.00
21518;DHT22;61765;45.794;24.150;2023-04-01T15:26:33;18.20;83.40
21518;DHT22;61765;45.794;24.150;2023-04-01T15:34:50;17.90;84.50
21518;DHT22;61765;45.794;24.150;2023-04-01T15:43:11;17.80;85.10
21518;DHT22;61765;45.794;24.150;2023-04-01T15:51:39;17.80;86.10
21518;DHT22;61765;45.794;24.150;2023-04-01T16:00:09;16.90;88.90
21518;DHT22;61765;45.794;24.150;2023-04-01T16:08:37;17.00;88.50
21518;DHT22;61765;45.794;24.150;2023-04-01T16:16:58;16.90;88.10
21518;DHT22;61765;45.794;24.150;2023-04-01T16:25:19;16.70;89.30
21518;DHT22;61765;45.794;24.150;2023-04-01T16:33:37;16.80;88.80
21518;DHT22;61765;45.794;24.150;2023-04-01T16:41:49;16.90;88.50
21518;DHT22;61765;45.794;24.150;2023-04-01T16:50:05;16.90;88.10
21518;DHT22;61765;45.794;24.150;2023-04-01T16:58:18;17.00;87.80
21518;DHT22;61765;45.794;24.150;2023-04-01T17:06:33;17.10;87.80
21518;DHT22;61765;45.794;24.150;2023-04-01T17:14:45;17.20;87.20
21518;DHT22;61765;45.794;24.150;2023-04-01T17:22:57;17.20;87.40
21518;DHT22;61765;45.794;24.150;2023-04-01T17:31:10;17.20;87.10
21518;DHT22;61765;45.794;24.150;2023-04-01T17:39:36;17.30;87.40
21518;DHT22;61765;45.794;24.150;2023-04-01T17:47:52;17.40;87.50
21518;DHT22;61765;45.794;24.150;2023-04-01T17:56:09;17.20;87.60
21518;DHT22;61765;45.794;24.150;2023-04-01T18:04:35;17.10;88.00
21518;DHT22;61765;45.794;24.150;2023-04-01T18:13:04;17.20;87.90
21518;DHT22;61765;45.794;24.150;2023-04-01T18:21:17;17.30;88.20
21518;DHT22;61765;45.794;24.150;2023-04-01T18:29:35;17.10;88.60
21518;DHT22;61765;45.794;24.150;2023-04-01T18:37:45;16.90;88.70
21518;DHT22;61765;45.794;24.150;2023-04-01T18:45:57;16.70;89.20
21518;DHT22;61765;45.794;24.150;2023-04-01T18:54:10;16.50;89.40
21518;DHT22;61765;45.794;24.150;2023-04-01T19:02:27;16.30;89.20
21518;DHT22;61765;45.794;24.150;2023-04-01T19:10:42;16.30;89.50
21518;DHT22;61765;45.794;24.150;2023-04-01T19:19:01;16.20;89.30
21518;DHT22;61765;45.794;24.150;2023-04-01T19:27:18;16.00;90.10
21518;DHT22;61765;45.794;24.150;2023-04-01T19:35:35;15.90;90.10
21518;DHT22;61765;45.794;24.150;2023-04-01T19:43:51;15.80;90.10
21518;DHT22;61765;45.794;24.150;2023-04-01T19:52:05;15.80;89.40
21518;DHT22;61765;45.794;24.150;2023-04-01T20:00:18;15.70;89.70
21518;DHT22;61765;45.794;24.150;2023-04-01T20:08:36;15.60;89.40
21518;DHT22;61765;45.794;24.150;2023-04-01T20:16:54;15.40;89.80
21518;DHT22;61765;45.794;24.150;2023-04-01T20:25:10;15.60;89.20
21518;DHT22;61765;45.794;24.150;2023-04-01T20:50:29;15.50;89.00
21518;DHT22;61765;45.794;24.150;2023-04-01T20:58:49;15.60;88.80
21518;DHT22;61765;45.794;24.150;2023-04-01T21:15:42;15.50;89.00
21518;DHT22;61765;45.794;24.150;2023-04-01T21:32:52;15.40;87.90
21518;DHT22;61765;45.794;24.150;2023-04-01T21:41:18;15.00;88.50
21518;DHT22;61765;45.794;24.150;2023-04-01T21:49:49;14.70;89.40
21518;DHT22;61765;45.794;24.150;2023-04-01T22:06:41;14.70;89.00
21518;DHT22;61765;45.794;24.150;2023-04-01T22:14:50;14.70;89.10
21518;DHT22;61765;45.794;24.150;2023-04-01T22:23:17;14.50;89.00
21518;DHT22;61765;45.794;24.150;2023-04-01T22:31:28;14.40;89.10
21518;DHT22;61765;45.794;24.150;2023-04-01T22:39:56;14.30;88.60
21518;DHT22;61765;45.794;24.150;2023-04-01T22:48:10;14.20;87.60
21518;DHT22;61765;45.794;24.150;2023-04-01T22:56:23;13.80;88.40
21518;DHT22;61765;45.794;24.150;2023-04-01T23:04:37;13.70;89.00
21518;DHT22;61765;45.794;24.150;2023-04-01T23:12:48;13.60;88.10
21518;DHT22;61765;45.794;24.150;2023-04-01T23:21:07;14.00;88.00
21518;DHT22;61765;45.794;24.150;2023-04-01T23:29:21;14.10;87.60
21518;DHT22;61765;45.794;24.150;2023-04-01T23:37:28;14.30;86.90
21518;DHT22;61765;45.794;24.150;2023-04-01T23:45:36;14.70;85.80
21518;DHT22;61765;45.794;24.150;2023-04-01T23:53:44;14.90;85.40
